Time;durP1;ratioP1;P1;durP2;ratioP2;P2;SDS_P1;SDS_P2;PMS_P1;PMS_P2;Temp;Humidity;BMP_temperature;BMP_pressure;BME280_temperature;BME280_humidity;BME280_pressure;Samples;Min_cycle;Max_cycle;Signal;HPM_P1;HPM_P2
2021/10/07 00:02:11;;;;;;;5.53;4.25;;;9.20;99.90;;;;;;4972600;28;20430;-74
2021/10/07 00:04:36;;;;;;;7.82;4.40;;;9.20;99.90;;;;;;4982376;28;20027;-74
2021/10/07 00:07:02;;;;;;;8.15;4.40;;;9.10;99.90;;;;;;4969147;28;20367;-74
2021/10/07 00:09:28;;;;;;;6.30;4.60;;;9.10;99.90;;;;;;4977528;28;20058;-73
2021/10/07 00:11:53;;;;;;;7.35;4.25;;;9.00;99.90;;;;;;4983853;28;20057;-74
2021/10/07 00:14:19;;;;;;;7.10;4.60;;;9.00;99.90;;;;;;4981372;28;20088;-75
2021/10/07 00:16:45;;;;;;;7.95;4.88;;;8.90;99.90;;;;;;4978451;28;20027;-74
2021/10/07 00:19:11;;;;;;;7.50;4.95;;;8.90;99.90;;;;;;4978673;28;20041;-74
2021/10/07 00:21:36;;;;;;;6.70;4.40;;;8.90;99.90;;;;;;4980874;28;20058;-74
2021/10/07 00:24:08;;;;;;;7.35;4.80;;;9.10;99.90;;;;;;4973426;28;20018;-73
2021/10/07 00:26:45;;;;;;;7.50;5.10;;;9.30;99.90;;;;;;4973242;28;20018;-76
2021/10/07 00:29:33;;;;;;;9.68;5.00;;;9.30;99.90;;;;;;4970560;28;20027;-74
2021/10/07 00:32:11;;;;;;;9.43;4.30;;;9.20;99.90;;;;;;4970411;28;20053;-74
2021/10/07 00:37:26;;;;;;;7.80;4.57;;;9.10;99.90;;;;;;4977104;28;20509;-76
2021/10/07 00:39:52;;;;;;;8.68;4.55;;;9.10;99.90;;;;;;4979270;28;20477;-74
2021/10/07 00:42:18;;;;;;;6.93;4.43;;;9.10;99.90;;;;;;4978254;28;20023;-73
2021/10/07 00:44:45;;;;;;;4.82;4.30;;;9.20;99.90;;;;;;4986784;28;20050;-73
2021/10/07 00:47:12;;;;;;;6.75;4.57;;;9.20;99.90;;;;;;4973418;28;20026;-72
2021/10/07 00:49:40;;;;;;;8.07;4.40;;;9.20;99.90;;;;;;4971581;28;20045;-72
2021/10/07 00:52:10;;;;;;;6.40;4.00;;;9.20;99.90;;;;;;4966024;28;20030;-72
2021/10/07 00:54:37;;;;;;;9.70;5.10;;;9.30;99.90;;;;;;4975706;28;20102;-73
2021/10/07 00:57:05;;;;;;;7.00;4.10;;;9.30;99.90;;;;;;4975523;28;20054;-72
2021/10/07 00:59:33;;;;;;;8.50;4.50;;;9.30;99.90;;;;;;4985330;28;20073;-72
2021/10/07 01:02:03;;;;;;;8.20;4.10;;;9.20;99.90;;;;;;4977347;28;20403;-73
2021/10/07 01:04:28;;;;;;;7.00;4.47;;;9.20;99.90;;;;;;4986809;28;20030;-72
2021/10/07 01:06:54;;;;;;;10.02;5.28;;;9.30;99.90;;;;;;4988755;28;20405;-72
2021/10/07 01:09:19;;;;;;;7.78;4.80;;;9.30;99.90;;;;;;4980134;28;20465;-72
2021/10/07 01:11:45;;;;;;;8.75;5.03;;;9.40;99.90;;;;;;4974053;28;20035;-73
2021/10/07 01:14:10;;;;;;;8.48;4.78;;;9.40;99.90;;;;;;4974362;28;20113;-72
2021/10/07 01:16:36;;;;;;;10.15;5.35;;;9.40;99.90;;;;;;4999247;28;20026;-74
2021/10/07 01:19:02;;;;;;;11.15;5.47;;;9.30;99.90;;;;;;4980833;28;20030;-73
2021/10/07 01:21:28;;;;;;;10.00;5.32;;;9.30;99.90;;;;;;4999975;28;20031;-73
2021/10/07 01:23:53;;;;;;;11.52;5.65;;;9.30;99.90;;;;;;4979414;28;20030;-73
2021/10/07 01:26:21;;;;;;;10.65;5.85;;;9.40;99.90;;;;;;4978216;28;20509;-73
2021/10/07 01:28:49;;;;;;;7.85;5.57;;;9.50;99.90;;;;;;4982610;28;20101;-73
2021/10/07 01:31:16;;;;;;;8.68;4.95;;;9.40;99.90;;;;;;4980904;28;20041;-73
2021/10/07 01:33:42;;;;;;;8.00;5.25;;;9.30;99.90;;;;;;4988074;28;20026;-74
2021/10/07 01:36:08;;;;;;;7.93;4.53;;;9.30;99.90;;;;;;4971146;28;20497;-74
2021/10/07 01:38:34;;;;;;;8.02;4.60;;;9.30;99.90;;;;;;5003738;28;20034;-74
2021/10/07 01:40:59;;;;;;;6.47;4.72;;;9.30;99.90;;;;;;4970335;28;20051;-74
2021/10/07 01:43:25;;;;;;;8.27;5.70;;;9.30;99.90;;;;;;4985109;28;20041;-74
2021/10/07 01:45:51;;;;;;;8.00;5.45;;;9.40;99.90;;;;;;4980376;28;20035;-74
2021/10/07 01:48:17;;;;;;;9.50;5.15;;;9.40;99.90;;;;;;4954857;28;20038;-74
2021/10/07 01:50:44;;;;;;;8.98;5.25;;;9.40;99.90;;;;;;4954639;28;20389;-73
2021/10/07 01:53:09;;;;;;;8.10;4.70;;;9.40;99.90;;;;;;4960561;28;20031;-73
2021/10/07 01:55:35;;;;;;;8.32;4.85;;;9.30;99.90;;;;;;4971011;28;20106;-73
2021/10/07 01:58:00;;;;;;;9.02;5.30;;;9.40;99.90;;;;;;4964957;28;20030;-72
2021/10/07 02:00:26;;;;;;;6.20;4.75;;;9.40;99.90;;;;;;4968559;28;20035;-73
2021/10/07 02:02:52;;;;;;;5.47;4.57;;;9.40;99.90;;;;;;4966084;28;20404;-73
2021/10/07 02:05:18;;;;;;;9.73;5.05;;;9.30;99.90;;;;;;4966152;28;20034;-73
2021/10/07 02:07:44;;;;;;;6.15;4.93;;;9.30;99.90;;;;;;4988840;28;20078;-73
2021/10/07 02:10:14;;;;;;;9.10;4.95;;;9.10;99.90;;;;;;4973897;28;20125;-74
2021/10/07 02:12:45;;;;;;;7.90;4.85;;;9.00;99.90;;;;;;4972347;28;20031;-75
2021/10/07 02:15:12;;;;;;;8.77;5.03;;;9.10;99.90;;;;;;4973757;28;20034;-75
2021/10/07 02:17:38;;;;;;;10.13;4.60;;;9.30;99.90;;;;;;4972372;28;20027;-75
2021/10/07 02:20:05;;;;;;;9.43;5.72;;;9.30;99.90;;;;;;4972559;28;20023;-73
2021/10/07 02:22:31;;;;;;;10.55;5.78;;;9.40;99.90;;;;;;4971275;28;20035;-73
2021/10/07 02:24:57;;;;;;;11.27;6.43;;;9.40;99.90;;;;;;4967130;28;20026;-74
2021/10/07 02:27:22;;;;;;;14.45;7.47;;;9.40;99.90;;;;;;4958777;28;20054;-74
2021/10/07 02:29:48;;;;;;;15.52;7.50;;;9.30;99.90;;;;;;4954286;28;20024;-76
2021/10/07 02:32:13;;;;;;;10.82;7.32;;;9.20;99.90;;;;;;4951966;28;20036;-74
2021/10/07 02:34:39;;;;;;;14.85;7.95;;;9.20;99.90;;;;;;4952784;28;20031;-74
2021/10/07 02:37:05;;;;;;;17.88;9.85;;;9.40;99.90;;;;;;4952745;28;20039;-73
2021/10/07 02:39:30;;;;;;;14.32;8.02;;;9.50;99.90;;;;;;4952865;28;20501;-73
2021/10/07 02:41:56;;;;;;;10.68;6.00;;;9.50;99.90;;;;;;4952480;28;20118;-73
2021/10/07 02:44:21;;;;;;;8.32;5.57;;;9.50;99.90;;;;;;4969761;28;20030;-73
2021/10/07 02:46:47;;;;;;;8.93;5.32;;;9.50;99.90;;;;;;4971654;28;20122;-73
2021/10/07 02:49:13;;;;;;;9.50;5.03;;;9.60;99.90;;;;;;4963233;28;20028;-73
2021/10/07 02:51:38;;;;;;;6.57;4.55;;;9.70;99.90;;;;;;4969722;28;20417;-74
2021/10/07 02:54:04;;;;;;;6.53;4.47;;;9.70;99.90;;;;;;4952563;28;20506;-73
2021/10/07 02:56:29;;;;;;;5.95;4.82;;;9.80;99.90;;;;;;4957907;28;20466;-73
2021/10/07 02:58:55;;;;;;;11.27;5.57;;;9.80;99.90;;;;;;4972315;28;20027;-74
2021/10/07 03:01:20;;;;;;;11.73;5.43;;;9.80;99.90;;;;;;4957852;28;20066;-76
2021/10/07 03:03:46;;;;;;;10.73;5.18;;;9.80;99.90;;;;;;4953695;28;20064;-74
2021/10/07 03:06:11;;;;;;;9.32;5.82;;;9.80;99.90;;;;;;4962201;28;20091;-74
2021/10/07 03:08:37;;;;;;;7.65;4.70;;;9.80;99.90;;;;;;4966046;28;20051;-74
2021/10/07 03:11:03;;;;;;;9.75;5.65;;;9.90;99.90;;;;;;4964070;28;20031;-74
2021/10/07 03:13:28;;;;;;;9.88;6.05;;;9.90;99.90;;;;;;4965372;28;20079;-74
2021/10/07 03:15:54;;;;;;;9.93;6.20;;;9.80;99.90;;;;;;4952538;28;20582;-75
2021/10/07 03:18:19;;;;;;;11.88;7.05;;;9.80;99.90;;;;;;4953725;28;20027;-76
2021/10/07 03:20:45;;;;;;;11.45;6.07;;;9.90;99.90;;;;;;4952046;28;20042;-76
2021/10/07 03:23:11;;;;;;;9.88;5.97;;;9.70;99.90;;;;;;4953622;28;20050;-75
2021/10/07 03:25:36;;;;;;;7.53;5.88;;;9.70;99.90;;;;;;4954077;28;20505;-74
2021/10/07 03:28:02;;;;;;;8.48;5.78;;;9.60;99.90;;;;;;4971595;28;20482;-74
2021/10/07 03:30:28;;;;;;;7.78;5.40;;;9.60;99.90;;;;;;4958248;28;20027;-74
2021/10/07 03:32:53;;;;;;;8.38;6.32;;;9.60;99.90;;;;;;4952022;28;20030;-75
2021/10/07 03:35:19;;;;;;;10.18;6.00;;;9.60;99.90;;;;;;4966880;28;20551;-76
2021/10/07 03:37:44;;;;;;;10.73;6.05;;;9.50;99.90;;;;;;4964832;28;20511;-76
2021/10/07 03:40:11;;;;;;;10.23;6.13;;;9.40;99.90;;;;;;4967905;28;20039;-76
2021/10/07 03:42:38;;;;;;;14.35;6.97;;;9.40;99.90;;;;;;4952235;28;20031;-74
2021/10/07 03:45:05;;;;;;;10.20;5.95;;;9.40;99.90;;;;;;4974406;28;20019;-75
2021/10/07 03:47:30;;;;;;;10.82;6.22;;;9.40;99.90;;;;;;4968930;28;20069;-74
2021/10/07 03:49:57;;;;;;;10.07;6.00;;;9.40;99.90;;;;;;4957183;28;20493;-76
2021/10/07 03:52:24;;;;;;;9.02;6.25;;;9.50;99.90;;;;;;4961316;28;20449;-75
2021/10/07 03:54:49;;;;;;;8.55;5.85;;;9.50;99.90;;;;;;4957314;28;20469;-73
2021/10/07 03:57:15;;;;;;;8.50;5.40;;;9.50;99.90;;;;;;4957036;28;20042;-73
2021/10/07 03:59:40;;;;;;;8.20;6.00;;;9.50;99.90;;;;;;4959313;28;20023;-74
2021/10/07 04:02:06;;;;;;;10.07;6.40;;;9.60;99.90;;;;;;4974453;28;20034;-73
2021/10/07 04:04:32;;;;;;;8.68;5.88;;;9.60;99.90;;;;;;4963075;28;20051;-73
2021/10/07 04:06:57;;;;;;;8.20;6.18;;;9.60;99.90;;;;;;4976278;28;20421;-75
2021/10/07 04:09:23;;;;;;;12.55;6.63;;;9.60;99.90;;;;;;4963125;28;20038;-75
2021/10/07 04:11:49;;;;;;;10.45;7.40;;;9.70;99.90;;;;;;4969178;28;20110;-77
2021/10/07 04:14:14;;;;;;;178.63;99.93;;;9.60;99.90;;;;;;4969919;28;20158;-74
2021/10/07 04:16:40;;;;;;;123.80;70.68;;;9.50;99.90;;;;;;4963452;28;20023;-74
2021/10/07 04:19:05;;;;;;;231.18;135.35;;;9.50;99.90;;;;;;4962638;28;20059;-76
2021/10/07 04:21:31;;;;;;;76.57;45.58;;;9.60;99.90;;;;;;4955092;28;20038;-74
2021/10/07 04:23:56;;;;;;;27.90;15.57;;;9.80;99.90;;;;;;4968541;28;20022;-73
2021/10/07 04:26:22;;;;;;;34.25;22.55;;;9.80;99.90;;;;;;4969339;28;20030;-73
2021/10/07 04:28:48;;;;;;;14.27;10.07;;;9.80;99.90;;;;;;4968431;28;20027;-74
2021/10/07 04:31:13;;;;;;;17.15;13.20;;;9.90;99.90;;;;;;4969555;28;20028;-74
2021/10/07 04:33:39;;;;;;;23.70;20.85;;;9.80;99.90;;;;;;4967938;28;20023;-78
2021/10/07 04:36:05;;;;;;;32.45;29.08;;;9.40;99.90;;;;;;4956634;28;20393;-74
2021/10/07 04:38:30;;;;;;;60.35;54.15;;;9.30;99.90;;;;;;4964454;28;20391;-73
2021/10/07 04:40:56;;;;;;;24.70;22.23;;;9.30;99.90;;;;;;4969190;28;20031;-74
2021/10/07 04:43:21;;;;;;;18.38;14.90;;;9.50;99.90;;;;;;4964264;28;20037;-74
2021/10/07 04:45:47;;;;;;;25.00;22.42;;;9.60;99.90;;;;;;4965512;28;20449;-74
2021/10/07 04:48:13;;;;;;;27.85;24.88;;;9.60;99.90;;;;;;4969170;28;20019;-74
2021/10/07 04:50:39;;;;;;;25.17;22.10;;;9.70;99.90;;;;;;4956199;29;20031;-74
2021/10/07 04:53:05;;;;;;;15.60;13.07;;;9.60;99.90;;;;;;4956231;28;20077;-74
2021/10/07 04:55:30;;;;;;;19.70;14.30;;;9.60;99.90;;;;;;4968357;28;20047;-75
2021/10/07 04:57:56;;;;;;;13.77;10.30;;;9.60;99.90;;;;;;4968838;28;20122;-77
2021/10/07 05:00:22;;;;;;;12.35;9.30;;;9.70;99.90;;;;;;4961105;28;20065;-75
2021/10/07 05:02:47;;;;;;;15.25;11.60;;;9.80;99.90;;;;;;4962569;28;20058;-75
2021/10/07 05:05:13;;;;;;;19.30;12.38;;;9.80;99.90;;;;;;4970394;28;20042;-76
2021/10/07 05:07:39;;;;;;;15.13;9.40;;;9.80;99.90;;;;;;4962924;28;20030;-76
2021/10/07 05:10:07;;;;;;;11.50;8.55;;;9.70;99.90;;;;;;4973432;28;20054;-76
2021/10/07 05:12:32;;;;;;;11.35;8.93;;;9.70;99.90;;;;;;4973709;28;20031;-76
2021/10/07 05:14:58;;;;;;;13.85;9.50;;;9.70;99.90;;;;;;4969261;28;20047;-75
2021/10/07 05:17:23;;;;;;;13.65;7.93;;;9.70;99.90;;;;;;4966795;28;20031;-74
2021/10/07 05:19:49;;;;;;;12.68;8.90;;;9.70;99.90;;;;;;4968024;28;20023;-75
2021/10/07 05:22:14;;;;;;;13.50;9.27;;;9.70;99.90;;;;;;4955406;29;20478;-75
2021/10/07 05:24:40;;;;;;;9.80;8.48;;;9.70;99.90;;;;;;4955754;29;20035;-75
2021/10/07 05:27:06;;;;;;;12.65;7.97;;;9.80;99.90;;;;;;4955682;29;20500;-74
2021/10/07 05:29:32;;;;;;;32.03;21.40;;;9.80;99.90;;;;;;4955612;29;20393;-75
2021/10/07 05:31:58;;;;;;;27.85;18.60;;;9.70;99.90;;;;;;4955341;29;20114;-75
2021/10/07 05:34:23;;;;;;;18.67;11.10;;;9.40;99.90;;;;;;4954420;29;20115;-76
2021/10/07 05:36:49;;;;;;;16.70;10.65;;;9.20;99.90;;;;;;4965683;28;20035;-75
2021/10/07 05:39:15;;;;;;;14.57;9.25;;;9.20;99.90;;;;;;4960227;28;20030;-76
2021/10/07 05:41:40;;;;;;;11.68;8.40;;;9.30;99.90;;;;;;4963182;28;20031;-77
2021/10/07 05:44:10;;;;;;;15.23;10.38;;;9.40;99.90;;;;;;4955337;29;20497;-77
2021/10/07 05:46:37;;;;;;;21.92;15.07;;;9.60;99.90;;;;;;4967816;28;20474;-77
2021/10/07 05:49:06;;;;;;;19.95;14.43;;;9.50;99.90;;;;;;4974517;28;20019;-75
2021/10/07 05:51:32;;;;;;;17.20;12.65;;;9.70;99.90;;;;;;4974154;28;20050;-74
2021/10/07 05:53:58;;;;;;;14.57;9.50;;;9.80;99.90;;;;;;4955158;29;20133;-75
2021/10/07 05:56:23;;;;;;;12.05;8.25;;;9.80;99.90;;;;;;4966778;28;20550;-75
2021/10/07 05:58:50;;;;;;;12.82;7.80;;;9.80;99.90;;;;;;4969786;28;20062;-75
2021/10/07 06:01:16;;;;;;;12.55;7.85;;;9.90;99.90;;;;;;4972631;28;20121;-74
2021/10/07 06:03:42;;;;;;;14.60;7.07;;;9.90;99.90;;;;;;4955067;29;20066;-76
2021/10/07 06:06:07;;;;;;;10.45;8.48;;;10.00;99.90;;;;;;4966306;28;20421;-75
2021/10/07 06:08:33;;;;;;;9.35;7.22;;;10.00;99.90;;;;;;4953687;29;20051;-75
2021/10/07 06:10:59;;;;;;;12.88;8.10;;;9.90;99.90;;;;;;4954759;29;20027;-75
2021/10/07 06:13:24;;;;;;;11.00;9.02;;;9.80;99.90;;;;;;4966343;28;20028;-75
2021/10/07 06:15:53;;;;;;;11.52;9.00;;;9.80;99.90;;;;;;4966552;28;20046;-76
2021/10/07 06:18:19;;;;;;;14.13;9.95;;;9.90;99.90;;;;;;4956823;28;20055;-74
2021/10/07 06:20:45;;;;;;;21.67;13.85;;;9.90;99.90;;;;;;4967399;28;20027;-75
2021/10/07 06:23:10;;;;;;;12.55;8.98;;;9.80;99.90;;;;;;4961102;28;20038;-75
2021/10/07 06:25:37;;;;;;;11.90;8.55;;;10.00;99.90;;;;;;4960970;28;20042;-75
2021/10/07 06:28:04;;;;;;;10.23;7.40;;;9.90;99.90;;;;;;4960981;28;20031;-75
2021/10/07 06:30:30;;;;;;;10.40;7.35;;;9.90;99.90;;;;;;4973576;28;20105;-75
2021/10/07 06:32:57;;;;;;;8.60;6.57;;;10.00;99.90;;;;;;4973711;28;20110;-72
2021/10/07 06:35:23;;;;;;;9.13;5.90;;;10.00;99.90;;;;;;4960607;28;20034;-74
2021/10/07 06:37:49;;;;;;;8.43;5.40;;;10.00;99.90;;;;;;4966690;28;20078;-74
2021/10/07 06:40:15;;;;;;;8.35;5.43;;;10.10;99.90;;;;;;4967202;28;20034;-74
2021/10/07 06:42:42;;;;;;;12.35;5.38;;;10.20;99.90;;;;;;4960807;28;20033;-76
2021/10/07 06:45:09;;;;;;;8.10;5.65;;;10.30;99.90;;;;;;4987369;28;20392;-75
2021/10/07 06:47:35;;;;;;;11.07;6.60;;;10.20;99.90;;;;;;4992810;28;20119;-75
2021/10/07 06:50:03;;;;;;;9.45;6.38;;;10.20;99.90;;;;;;4978579;28;20023;-75
2021/10/07 06:52:28;;;;;;;7.20;5.75;;;10.20;99.90;;;;;;4974296;28;20102;-76
2021/10/07 06:54:54;;;;;;;8.45;6.32;;;10.30;99.90;;;;;;4959269;28;20063;-77
2021/10/07 06:57:19;;;;;;;10.23;6.25;;;10.40;99.90;;;;;;4953937;29;20038;-75
2021/10/07 06:59:45;;;;;;;11.40;7.35;;;10.50;99.90;;;;;;4954056;29;20179;-76
2021/10/07 07:02:10;;;;;;;10.57;7.18;;;10.70;99.90;;;;;;4953890;29;20033;-76
2021/10/07 07:04:36;;;;;;;11.25;7.15;;;10.70;99.90;;;;;;4967751;28;20098;-78
2021/10/07 07:07:02;;;;;;;10.50;6.65;;;10.70;99.90;;;;;;4971975;28;20026;-74
2021/10/07 07:09:27;;;;;;;8.05;6.55;;;10.70;99.90;;;;;;4972080;28;20437;-76
2021/10/07 07:11:53;;;;;;;12.25;6.30;;;10.60;99.90;;;;;;4973091;28;20465;-75
2021/10/07 07:14:18;;;;;;;8.55;6.10;;;10.70;99.90;;;;;;4973237;28;20026;-76
2021/10/07 07:16:44;;;;;;;8.18;6.30;;;10.90;99.90;;;;;;4966468;28;20440;-75
2021/10/07 07:19:10;;;;;;;8.77;6.03;;;10.80;99.90;;;;;;4972325;28;20050;-78
2021/10/07 07:21:36;;;;;;;9.23;6.10;;;10.80;99.90;;;;;;4972671;28;20027;-77
2021/10/07 07:24:02;;;;;;;11.50;6.32;;;10.70;99.90;;;;;;4960306;28;20035;-74
2021/10/07 07:26:29;;;;;;;8.32;5.70;;;10.70;99.90;;;;;;4960177;29;20086;-75
2021/10/07 07:28:56;;;;;;;8.80;5.65;;;10.60;99.90;;;;;;4973786;28;20018;-75
2021/10/07 07:31:23;;;;;;;12.65;7.00;;;10.90;99.90;;;;;;4972695;28;20082;-75
2021/10/07 07:33:49;;;;;;;8.98;6.80;;;11.20;99.90;;;;;;4972586;28;20034;-76
2021/10/07 07:36:18;;;;;;;8.00;6.22;;;11.20;99.90;;;;;;4979527;28;20026;-74
2021/10/07 07:38:45;;;;;;;9.93;6.78;;;10.90;99.90;;;;;;4979414;28;20014;-76
2021/10/07 07:41:12;;;;;;;14.35;7.22;;;10.90;99.90;;;;;;4978338;28;20381;-74
2021/10/07 07:43:39;;;;;;;12.02;7.80;;;10.80;99.90;;;;;;4968201;28;20441;-75
2021/10/07 07:46:04;;;;;;;12.77;8.07;;;10.90;99.90;;;;;;4998798;28;20022;-76
2021/10/07 07:48:31;;;;;;;13.07;8.15;;;10.80;99.90;;;;;;4997602;28;20045;-76
2021/10/07 07:50:56;;;;;;;9.60;7.90;;;10.90;99.90;;;;;;4989901;28;20388;-73
2021/10/07 07:53:22;;;;;;;13.48;8.38;;;11.00;99.90;;;;;;4964187;28;20038;-75
2021/10/07 07:55:48;;;;;;;10.80;7.20;;;11.10;99.90;;;;;;4967153;28;20062;-71
2021/10/07 07:58:13;;;;;;;11.70;7.50;;;11.20;99.90;;;;;;4979233;28;20035;-76
2021/10/07 08:00:40;;;;;;;13.45;7.93;;;10.80;99.90;;;;;;4969777;28;20478;-76
2021/10/07 08:03:06;;;;;;;10.90;7.50;;;10.80;99.90;;;;;;4974519;28;20030;-75
2021/10/07 08:05:32;;;;;;;11.80;8.35;;;10.90;99.90;;;;;;4979124;28;20019;-75
2021/10/07 08:07:58;;;;;;;13.30;8.68;;;10.90;99.90;;;;;;4977986;28;20034;-75
2021/10/07 08:10:24;;;;;;;10.93;7.40;;;10.90;99.90;;;;;;4970978;28;20019;-73
2021/10/07 08:12:50;;;;;;;15.07;7.25;;;11.20;99.90;;;;;;4972389;28;20078;-74
2021/10/07 08:15:15;;;;;;;9.43;7.47;;;11.40;99.90;;;;;;4967179;28;20031;-75
2021/10/07 08:17:41;;;;;;;9.65;6.68;;;11.70;99.90;;;;;;4966061;28;20031;-75
2021/10/07 08:20:10;;;;;;;11.95;7.30;;;11.90;99.90;;;;;;4970502;28;20042;-75
2021/10/07 08:22:35;;;;;;;8.75;7.30;;;11.80;99.90;;;;;;4970825;28;20023;-75
2021/10/07 08:25:02;;;;;;;10.45;6.63;;;11.80;99.90;;;;;;4958573;28;20024;-75
2021/10/07 08:27:28;;;;;;;9.35;7.53;;;11.90;99.90;;;;;;4974834;28;20469;-75
2021/10/07 08:29:54;;;;;;;9.63;8.10;;;11.80;99.90;;;;;;4967229;28;20027;-75
2021/10/07 08:32:20;;;;;;;12.27;8.55;;;11.80;99.90;;;;;;4971826;28;20486;-72
2021/10/07 08:34:46;;;;;;;10.90;8.35;;;11.80;99.90;;;;;;4966806;28;20045;-75
2021/10/07 08:37:11;;;;;;;11.43;8.65;;;11.60;99.90;;;;;;4971865;28;20031;-75
2021/10/07 08:39:37;;;;;;;11.30;8.40;;;11.60;99.90;;;;;;4975912;28;20110;-75
2021/10/07 08:42:04;;;;;;;9.45;8.45;;;11.70;99.90;;;;;;4973093;28;20038;-76
2021/10/07 08:44:30;;;;;;;10.55;8.52;;;11.80;99.90;;;;;;4956435;29;20051;-75
2021/10/07 08:46:57;;;;;;;10.05;8.98;;;11.80;99.90;;;;;;4956313;29;20027;-75
2021/10/07 08:49:25;;;;;;;13.40;9.10;;;11.90;99.90;;;;;;4956321;29;20482;-75
2021/10/07 08:51:51;;;;;;;10.95;9.13;;;12.00;99.90;;;;;;4955121;29;20043;-75
2021/10/07 08:54:18;;;;;;;10.35;8.00;;;12.10;99.90;;;;;;4956248;29;20027;-75
2021/10/07 08:56:44;;;;;;;8.07;7.07;;;12.30;99.90;;;;;;4956092;29;20039;-75
2021/10/07 08:59:10;;;;;;;10.25;7.22;;;12.40;99.90;;;;;;4965983;28;20034;-75
2021/10/07 09:01:40;;;;;;;7.65;5.80;;;12.50;99.90;;;;;;4960798;28;20069;-74
2021/10/07 09:04:22;;;;;;;5.43;4.93;;;12.80;99.90;;;;;;4965972;28;20051;-74
2021/10/07 09:06:51;;;;;;;6.22;3.75;;;12.80;99.90;;;;;;4967728;28;20051;-74
2021/10/07 09:09:17;;;;;;;3.88;3.22;;;12.70;99.90;;;;;;4967641;28;20033;-75
2021/10/07 09:11:50;;;;;;;4.32;3.30;;;12.30;99.90;;;;;;4974478;28;20026;-75
2021/10/07 09:14:18;;;;;;;6.40;3.40;;;12.20;99.90;;;;;;4962539;28;20110;-74
2021/10/07 09:16:47;;;;;;;4.35;3.35;;;12.50;99.90;;;;;;4961054;28;20101;-74
2021/10/07 09:19:18;;;;;;;3.78;2.90;;;12.60;99.90;;;;;;4960909;28;20031;-74
2021/10/07 09:21:46;;;;;;;5.05;3.33;;;12.50;99.90;;;;;;4973508;28;20034;-74
2021/10/07 09:24:34;;;;;;;3.58;2.90;;;12.60;99.90;;;;;;4962027;28;20027;-74
2021/10/07 09:27:27;;;;;;;5.97;3.22;;;12.80;99.90;;;;;;4974858;28;20400;-75
2021/10/07 09:29:58;;;;;;;4.63;3.42;;;13.10;99.90;;;;;;4960970;28;20070;-74
2021/10/07 09:32:46;;;;;;;6.95;4.28;;;13.10;99.90;;;;;;4972511;28;20481;-75
2021/10/07 09:35:14;;;;;;;5.65;4.35;;;13.00;99.90;;;;;;4966944;28;20026;-74
2021/10/07 09:37:45;;;;;;;4.97;4.28;;;12.70;99.90;;;;;;4969294;28;20069;-74
2021/10/07 09:40:21;;;;;;;5.07;4.57;;;12.70;99.90;;;;;;4955337;28;20569;-74
2021/10/07 09:42:48;;;;;;;9.15;4.80;;;12.40;99.90;;;;;;4965938;28;20613;-74
2021/10/07 09:45:16;;;;;;;5.68;4.38;;;12.40;99.90;;;;;;4982934;28;20511;-74
2021/10/07 09:47:54;;;;;;;6.60;4.03;;;12.40;99.90;;;;;;4965757;28;20139;-73
2021/10/07 09:50:24;;;;;;;4.13;3.60;;;12.10;99.90;;;;;;4968152;28;20078;-75
2021/10/07 09:52:53;;;;;;;5.82;4.10;;;12.50;99.90;;;;;;4965980;28;20034;-75
2021/10/07 09:55:22;;;;;;;5.25;3.80;;;12.80;99.90;;;;;;4961476;28;20027;-74
2021/10/07 09:58:03;;;;;;;5.72;3.92;;;12.60;99.90;;;;;;4963029;28;20027;-74
2021/10/07 10:00:34;;;;;;;5.72;3.72;;;12.20;99.90;;;;;;4962976;28;20023;-75
2021/10/07 10:03:02;;;;;;;5.13;3.30;;;12.20;99.90;;;;;;4976385;28;20027;-75
2021/10/07 10:05:29;;;;;;;5.95;3.15;;;12.30;99.90;;;;;;4982129;28;20058;-74
2021/10/07 10:07:55;;;;;;;6.00;3.13;;;12.50;99.90;;;;;;4974078;28;20081;-74
2021/10/07 10:10:21;;;;;;;3.58;2.83;;;12.90;99.90;;;;;;4983832;28;20090;-74
2021/10/07 10:12:47;;;;;;;4.85;3.10;;;13.30;99.90;;;;;;4985913;28;20022;-75
2021/10/07 10:15:15;;;;;;;3.75;2.95;;;13.60;99.90;;;;;;4978875;28;20034;-74
2021/10/07 10:17:41;;;;;;;2.95;2.47;;;13.70;99.90;;;;;;4986649;28;20069;-74
2021/10/07 10:20:28;;;;;;;3.60;2.00;;;13.40;99.90;;;;;;4989676;28;20045;-74
2021/10/07 10:23:05;;;;;;;2.55;2.35;;;13.50;99.90;;;;;;4978053;28;20038;-74
2021/10/07 10:25:49;;;;;;;3.60;2.30;;;13.70;99.90;;;;;;4988316;28;20019;-75
2021/10/07 10:28:15;;;;;;;4.68;2.20;;;13.70;99.90;;;;;;4978008;28;20055;-74
2021/10/07 10:30:46;;;;;;;4.13;2.55;;;13.60;99.90;;;;;;4979744;28;20142;-73
2021/10/07 10:33:36;;;;;;;6.88;2.40;;;13.30;99.90;;;;;;4986458;28;20448;-74
2021/10/07 10:36:22;;;;;;;3.72;2.13;;;13.00;99.90;;;;;;4981508;28;20054;-74
2021/10/07 10:39:18;;;;;;;4.85;3.47;;;12.80;99.90;;;;;;4976680;28;20493;-74
2021/10/07 10:41:47;;;;;;;4.70;2.45;;;13.00;99.90;;;;;;4972326;28;20118;-74
2021/10/07 10:44:27;;;;;;;3.65;2.40;;;13.10;99.90;;;;;;4981589;28;20046;-74
2021/10/07 10:47:01;;;;;;;4.43;2.38;;;13.20;99.90;;;;;;4980084;28;20034;-74
2021/10/07 10:49:50;;;;;;;3.00;2.15;;;13.00;99.90;;;;;;4981285;28;20023;-74
2021/10/07 10:52:31;;;;;;;1.92;1.60;;;12.90;99.90;;;;;;4972484;28;20023;-74
2021/10/07 10:55:22;;;;;;;2.25;1.42;;;13.10;99.90;;;;;;4979616;28;20031;-74
2021/10/07 10:57:50;;;;;;;4.00;1.73;;;13.20;99.90;;;;;;4974436;28;20031;-74
2021/10/07 11:00:25;;;;;;;3.63;1.80;;;13.40;99.90;;;;;;4983055;28;20485;-74
2021/10/07 11:02:53;;;;;;;2.63;1.42;;;13.50;99.90;;;;;;4999606;28;20027;-74
2021/10/07 11:05:21;;;;;;;1.73;1.17;;;13.30;99.90;;;;;;4995854;28;20077;-74
2021/10/07 11:08:06;;;;;;;2.45;1.40;;;13.40;99.90;;;;;;4987098;28;20031;-74
2021/10/07 11:10:31;;;;;;;2.08;1.50;;;13.50;99.90;;;;;;4979644;28;20034;-73
2021/10/07 11:13:00;;;;;;;2.13;1.40;;;13.50;99.90;;;;;;4981045;28;20085;-74
2021/10/07 11:15:27;;;;;;;1.35;1.10;;;13.70;99.90;;;;;;4984041;28;20034;-73
2021/10/07 11:17:54;;;;;;;1.33;0.98;;;13.80;99.90;;;;;;4998874;28;20054;-74
2021/10/07 11:20:24;;;;;;;3.55;1.30;;;14.10;99.90;;;;;;4980573;28;20437;-74
2021/10/07 11:23:04;;;;;;;2.88;1.20;;;14.10;99.90;;;;;;4968759;28;20027;-74
2021/10/07 11:25:32;;;;;;;3.70;1.27;;;14.10;99.90;;;;;;4986843;28;20025;-74
2021/10/07 11:27:58;;;;;;;1.92;1.13;;;14.00;99.90;;;;;;4978106;28;20797;-74
2021/10/07 11:30:25;;;;;;;1.60;1.30;;;13.80;99.90;;;;;;4971360;28;20027;-74
2021/10/07 11:32:51;;;;;;;1.15;1.05;;;13.70;99.90;;;;;;4979927;28;20023;-74
2021/10/07 11:35:19;;;;;;;1.58;1.13;;;13.80;99.90;;;;;;4987019;28;20375;-74
2021/10/07 11:37:58;;;;;;;1.10;1.00;;;14.10;99.90;;;;;;4970915;28;20493;-74
2021/10/07 11:40:27;;;;;;;2.78;1.08;;;14.60;99.90;;;;;;4972417;28;20031;-74
2021/10/07 11:42:58;;;;;;;1.77;1.05;;;15.20;99.90;;;;;;4983803;28;20026;-74
2021/10/07 11:45:31;;;;;;;1.38;1.20;;;16.00;99.90;;;;;;4981180;28;20031;-74
2021/10/07 11:47:57;;;;;;;1.40;1.30;;;16.50;99.90;;;;;;4972630;28;20100;-74
2021/10/07 11:50:24;;;;;;;3.47;1.60;;;16.30;99.90;;;;;;4986742;28;20026;-74
2021/10/07 11:52:53;;;;;;;2.63;1.40;;;16.10;99.90;;;;;;4990559;28;20030;-75
2021/10/07 11:55:20;;;;;;;1.52;1.20;;;15.60;99.90;;;;;;4978721;28;20035;-74
2021/10/07 11:57:48;;;;;;;1.60;1.40;;;14.80;99.90;;;;;;4978941;28;20030;-74
2021/10/07 12:00:14;;;;;;;3.08;1.33;;;14.70;99.90;;;;;;4965731;28;20129;-75
2021/10/07 12:02:40;;;;;;;2.00;1.60;;;14.30;99.90;;;;;;4980102;28;20186;-73
2021/10/07 12:05:18;;;;;;;4.07;1.40;;;14.40;99.90;;;;;;4962332;28;20142;-73
2021/10/07 12:08:02;;;;;;;1.60;1.50;;;14.30;99.90;;;;;;4962599;28;20027;-73
2021/10/07 12:10:36;;;;;;;2.15;1.42;;;15.10;99.90;;;;;;4966513;28;20015;-72
2021/10/07 12:13:22;;;;;;;2.03;1.40;;;15.30;99.90;;;;;;4975357;28;20053;-72
2021/10/07 12:16:03;;;;;;;2.05;1.50;;;15.80;99.90;;;;;;4974345;28;20045;-74
2021/10/07 12:18:30;;;;;;;2.83;1.50;;;15.90;99.90;;;;;;4967579;28;20037;-73
2021/10/07 12:21:00;;;;;;;3.25;1.40;;;16.30;99.90;;;;;;4973825;28;20030;-74
2021/10/07 12:23:26;;;;;;;2.55;1.48;;;16.40;99.90;;;;;;4974300;28;20485;-74
2021/10/07 12:25:58;;;;;;;3.15;1.45;;;15.90;99.90;;;;;;4972717;28;20031;-72
2021/10/07 12:28:24;;;;;;;1.90;1.52;;;16.40;99.90;;;;;;4973818;28;20022;-72
2021/10/07 12:30:59;;;;;;;1.55;1.05;;;17.60;99.90;;;;;;4986743;28;20844;-74
2021/10/07 12:33:28;;;;;;;2.00;1.20;;;17.60;99.90;;;;;;4966298;28;20025;-74
2021/10/07 12:35:59;;;;;;;1.67;0.98;;;17.20;99.90;;;;;;4973472;28;20055;-74
2021/10/07 12:38:26;;;;;;;1.77;1.33;;;16.60;99.90;;;;;;4962962;28;20027;-73
2021/10/07 12:40:59;;;;;;;1.17;0.90;;;16.10;99.90;;;;;;4968005;28;20078;-73
2021/10/07 12:43:28;;;;;;;1.63;1.05;;;15.40;99.90;;;;;;4968410;28;20037;-75
2021/10/07 12:46:06;;;;;;;1.92;1.00;;;15.50;99.90;;;;;;4962239;28;20058;-75
2021/10/07 12:48:45;;;;;;;2.65;1.00;;;15.30;99.90;;;;;;4964051;28;20027;-74
2021/10/07 12:51:14;;;;;;;1.77;1.00;;;17.10;99.90;;;;;;4967263;28;20051;-74
2021/10/07 12:53:41;;;;;;;2.40;1.70;;;18.90;99.90;;;;;;4974862;28;20533;-75
2021/10/07 12:56:12;;;;;;;5.55;1.90;;;18.50;99.90;;;;;;4963457;28;20028;-76